World of Logs combat log analyzer allows gamers to save, share and analyze their raiding experiences conveniently and thoroughly in the Blizzard MMO World of Warcraft. If you're new here, make sure you check out the tour for a 1 minute introduction. If you have any questions, we're happy to answer them on the forums.

DPS HPS
Odyn
Helya
Guarm
Reports for Flame Leviathan - statistics
# Date Time Damage DPS Guild Realm
1 19 Mar 2011 00:40 60.35M 1504234.4 Lost soul EU-Rashgarroth
2 28 Mar 2012 00:41 33.87M 825686.5 GämeØver EU-Uldaman
3 22 Apr 2012 00:46 90.27M 1939225.7 Schaufel sein Account EU-Mal'Ganis
4 05 Feb 2011 00:47 90.67M 1917020.8 tmm US-Dalaran
5 15 Aug 2012 00:49 89.72M 1821180.8 AvatarSuramar US-Suramar
6 07 Mar 2012 00:52 91.57M 1753262.8 Vision US-Burning Blade
7 07 Apr 2012 00:52 92.87M 1768993.8 Temporalis Bellatoris EU-Das Syndikat
8 25 Feb 2011 00:52 85.81M 1624181.6 Demoted US-Bleeding Hollow
9 28 Nov 2011 00:52 90.95M 1718247.0 I Am Legend EU-Wrathbringer
10 29 Jan 2012 00:52 91.97M 1735409.3 HLF US-Burning Legion
11 07 Feb 2011 00:53 94.62M 1784894.7 Celestial Dawn EU-Aman'Thul
12 28 Jan 2011 00:53 90.68M 1704854.5 Wild Hogs US-Barthilas
13 05 Sep 2011 00:53 90.43M 1696116.0 Slap EU-Zenedar
14 10 Aug 2012 00:53 91.65M 1713656.7 Synergistic US-Dethecus
15 16 Jul 2012 00:53 92.17M 1718884.5 LegendZ - Vargur's crib EU-Silvermoon
16 16 Jul 2012 00:53 90.68M 1689700.5 EDL-Neobell EU-Die Arguswacht
17 16 Jul 2012 00:53 90.68M 1689700.5 EDL-Neobell EU-Die Arguswacht
18 23 Oct 2011 00:53 91.25M 1697609.9 Скажи Миру НЯ EU-Гордунни
19 08 Apr 2012 00:53 89.72M 1666033.0 Hogger does Dallas EU-Doomhammer
20 17 Aug 2012 00:54 94.50M 1743352.0 Azbestos US-Malygos
21 17 Feb 2012 00:54 91.11M 1679159.1 Logging Your FACE US-Icecrown
22 04 Jul 2012 00:54 90.51M 1667675.6 Shells logz EU-Zenedar
23 29 Jul 2012 00:54 91.96M 1683529.1 EDL-Neobell EU-Die Arguswacht
24 25 May 2012 00:55 66.97M 1217005.5 Masons of Valor US-Bladefist
25 29 Jan 2011 00:55 90.15M 1628404.6 Immortal Legacy US-Alleria
26 30 Mar 2012 00:55 90.92M 1641659.4 volkswagginrunz US-Shadowmoon
27 18 Apr 2013 00:55 100.19M 1802120.6 Noodle Factory US-Sargeras
28 16 Dec 2011 00:56 92.79M 1656776.8 Kinnetiks EU-Свежеватель Душ
29 24 Aug 2011 00:56 67.59M 1203208.2 Relic US-Mok'Nathal
30 18 Sep 2011 00:56 94.96M 1687571.1 11T9 US-Bloodscalp
31 23 Jul 2012 00:56 93.30M 1657580.0 EDL-Neobell EU-Die Arguswacht
32 16 Apr 2011 00:56 84.77M 1500101.8 We Bring the Deeps US-Skullcrusher
33 23 Jul 2012 00:56 93.30M 1649728.5 ehrengarde des lichts EU-Die Arguswacht
34 12 Sep 2011 00:56 95.52M 1686861.2 dorkinzlogs US-Ner'zhul
35 22 Apr 2011 00:56 86.81M 1523305.1 Defenders of Azeroth US-Thunderhorn
36 02 Aug 2012 00:57 93.82M 1638452.1 Северная Одиссея 2-10 EU-Борейская тундра
37 28 Jan 2011 00:57 96.82M 1676439.7 Paradox US-Mal'Ganis
38 31 Aug 2011 00:57 98.40M 1702230.1 VEX US-Misha
39 15 Apr 2012 00:57 91.67M 1585213.0 eSio EU-Blackhand
40 19 Aug 2011 00:58 91.99M 1581120.9 Wrath of God US-Khaz Modan
41 28 Jun 2012 00:58 92.72M 1590631.9 Спартас EU-Вечная Песня
42 19 Feb 2012 00:58 91.87M 1575823.5 Spïrit EU-Eldre'Thalas
43 06 Feb 2012 00:58 90.40M 1540562.7 The Kargatane US-Haomarush
44 11 Feb 2012 00:59 92.52M 1558551.3 Фрюшка Druid Balance EU-Гордунни
45 01 Nov 2011 00:59 101.01M 1699387.0 In Vîno Veritas EU-Aegwynn
46 17 Nov 2011 00:59 92.46M 1545758.5 Ancient US-Kilrogg
47 23 Aug 2011 00:59 94.21M 1574540.7 Varjo Soturi Failbarone EU-Alleria
48 21 Aug 2012 01:01 92.95M 1522421.8 Forgotten Aspects US-Hyjal
49 21 Aug 2012 01:01 92.95M 1522421.8 Forgotten Aspects US-Hyjal
50 07 May 2011 01:01 89.27M 1461841.8 Mostly Harmless US-Undermine
51 19 Mar 2011 01:01 84.52M 1375933.0 Lubes US-Lightning's Blade
52 27 Jul 2012 01:01 90.79M 1467114.8 Zalaril's logs EU-Hellfire
53 23 Feb 2011 01:01 86.84M 1401142.3 Fury Untold US-Sen'jin
54 17 Jul 2012 01:02 94.25M 1514459.5 Blood Sweat N Tiers US-Laughing Skull
55 25 Aug 2012 01:02 91.26M 1464270.7 Misrepresented US-Dath'Remar
56 26 Jul 2012 01:02 93.46M 1495707.7 cháos US-Area 52
57 12 Sep 2011 01:02 92.93M 1486290.9 Likes Turtles 2 US-Fenris
58 15 Jun 2012 01:02 94.18M 1502342.2 Aces US-Frostmourne
59 11 Jul 2012 01:02 92.79M 1479748.3 Serpent Fury EU-Ghostlands
60 24 Mar 2011 01:03 89.31M 1416880.0 Shadowgate US-Zul'jin
61 28 Aug 2011 01:03 93.25M 1477993.8 Shadow US-Bleeding Hollow
62 28 Nov 2011 01:04 100.60M 1564128.5 Ascension US-Madoran
63 12 Apr 2011 01:04 91.69M 1417361.1 Offline (Smudo) EU-Eredar
64 26 Jul 2012 01:04 92.34M 1426984.1 ist verwirrt EU-Anetheron
65 17 Oct 2011 01:05 96.48M 1483584.4 The Legends Reborn US-Twisting Nether
66 13 Mar 2012 01:05 90.80M 1395995.5 Mad Swagger US-Illidan
67 07 Jan 2011 01:05 88.91M 1366153.5 Маэльсторм EU-Азурегос
68 27 Nov 2011 01:05 93.03M 1419719.8 Bahu's Pug Log US-Ravenholdt
69 15 Aug 2012 01:05 92.93M 1410989.1 FranticFridge US-Eredar
70 15 Oct 2011 01:06 92.04M 1387502.7 BontaBonta EU-Area 52
71 12 Apr 2011 01:06 88.20M 1321871.9 enProgresso EU-Nozdormu
72 12 Nov 2011 01:07 91.81M 1367545.4 Order of Sinfonia US-Cenarion Circle
73 23 Feb 2012 01:07 90.66M 1343830.8 Against All Odds US-Borean Tundra
74 18 Nov 2011 01:07 46.94M 690422.6 The Demonic Reverants EU-Aggramar
75 31 Mar 2012 01:08 93.10M 1353965.2 Heresiarch US-Drenden
76 05 Feb 2012 01:09 91.43M 1313456.9 Rolands Logs EU-Forscherliga
77 09 Jul 2012 01:09 92.74M 1332283.3 Legit US-Kel'Thuzad
78 22 Aug 2012 01:10 95.14M 1353115.3 PULL EU-Die ewige Wacht
79 20 Feb 2011 01:10 53.06M 751234.6 Flagon ò Mead - pug US-Lightninghoof
80 29 Nov 2011 01:10 91.58M 1293041.0 we got this EU-Blackmoore
81 20 Aug 2012 01:11 92.51M 1289709.7 Solwinas Practice EU-Shattered Hand
82 23 May 2012 01:12 145.47M 2013021.6 Lurkers US-Terenas
83 12 Mar 2011 01:13 87.12M 1191915.3 Олд Скул EU-Азурегос
84 17 Sep 2011 01:13 91.97M 1256976.4 Illusive US-Deathwing
85 07 Nov 2010 01:13 49.05M 667941.1 Flashback EU-Arathor
86 15 May 2012 01:13 91.09M 1238422.0 Poop on Stix US-Spirestone
87 07 Sep 2011 01:13 92.12M 1246376.1 Traj's Logs US-Windrunner
88 20 Jun 2012 01:14 91.41M 1229939.3 Bollwerk EU-Azshara
89 23 Mar 2017 01:14 37.57M 505254.3 Advanced Player US-Icecrown
90 19 Sep 2011 01:14 91.16M 1217121.1 Natural Affinity US-Caelestrasz
91 22 May 2012 01:15 94.13M 1246418.0 Poop on Stix US-Spirestone
92 17 Apr 2010 01:15 46.00M 607871.7 Pie Vendor US-Dethecus
93 30 Jul 2010 01:16 44.84M 588094.1 Red Shadows US-Llane
94 09 Jun 2012 01:16 93.43M 1224182.4 Solace Reborn US-Stormrage
95 23 Feb 2012 01:16 95.90M 1255770.7 Corruption EU-Khaz Modan
96 16 Apr 2010 01:17 46.26M 600258.7 Сибирский Рейд EU-Дракономор
97 05 Jul 2010 01:17 45.35M 588491.1 Red Shadows US-Llane
98 22 Oct 2010 01:17 45.43M 589455.2 Red Shadows US-Llane
99 25 Feb 2010 01:17 45.78M 592476.7 The Monkey Tree EU-Terokkar
100 07 Jan 2012 01:17 94.29M 1215870.1 Mostly Harmless US-Undermine

Please do not close the page with the ad you want to report.

I've posted a guide on how to report misbehaving ads on the forum. Please follow the instructions and help make the internet a safer place. Thanks for you time.